Time;durP1;ratioP1;P1;durP2;ratioP2;P2;SDS_P1;SDS_P2;PMS_P1;PMS_P2;Temp;Humidity;BMP_temperature;BMP_pressure;BME280_temperature;BME280_humidity;BME280_pressure;Samples;Min_cycle;Max_cycle;Signal;HPM_P1;HPM_P2
2021/05/12 00:01:49;;;;;;;12.57;7.03;;;;;;;10.27;54.85;100861.16;5022960;28;20033;-69
2021/05/12 00:04:15;;;;;;;15.88;7.15;;;;;;;10.20;55.24;100856.16;5006454;28;20037;-69
2021/05/12 00:06:40;;;;;;;15.25;7.28;;;;;;;10.21;55.04;100855.25;5022691;28;20029;-69
2021/05/12 00:09:06;;;;;;;18.25;8.57;;;;;;;10.20;55.41;100860.53;5008587;28;20614;-69
2021/05/12 00:11:31;;;;;;;15.10;7.78;;;;;;;10.14;55.27;100859.00;5023337;28;20037;-69
2021/05/12 00:13:57;;;;;;;11.13;7.63;;;;;;;10.12;55.23;100852.97;5006579;28;20030;-69
2021/05/12 00:16:22;;;;;;;15.07;7.70;;;;;;;10.09;55.20;100853.09;5006922;28;20034;-69
2021/05/12 00:18:48;;;;;;;14.23;7.90;;;;;;;10.05;55.19;100848.06;5006146;28;20523;-69
2021/05/12 00:24:03;;;;;;;13.05;7.50;;;;;;;10.01;55.28;100848.19;4988726;28;20059;-69
2021/05/12 00:26:41;;;;;;;17.88;7.15;;;;;;;10.04;55.47;100841.16;4990809;28;20030;-69
2021/05/12 00:29:13;;;;;;;13.18;7.38;;;;;;;10.12;55.38;100845.16;5006138;28;20506;-69
2021/05/12 00:31:40;;;;;;;14.88;7.28;;;;;;;9.86;55.97;100853.16;5006791;28;20396;-69
2021/05/12 00:34:06;;;;;;;11.00;7.22;;;;;;;10.01;55.34;100860.38;5006273;28;20029;-69
2021/05/12 00:36:32;;;;;;;12.43;6.90;;;;;;;10.01;55.76;100858.63;5005759;28;20048;-69
2021/05/12 00:39:00;;;;;;;13.57;7.72;;;;;;;10.11;55.70;100860.91;5007146;28;20484;-69
2021/05/12 00:41:26;;;;;;;14.90;8.63;;;;;;;10.00;55.52;100861.28;4990249;28;20029;-69
2021/05/12 00:43:51;;;;;;;20.45;7.63;;;;;;;10.00;56.12;100866.53;5021040;28;20399;-69
2021/05/12 00:46:17;;;;;;;15.13;6.70;;;;;;;10.05;56.01;100854.13;5007400;28;20030;-69
2021/05/12 00:48:42;;;;;;;8.93;6.32;;;;;;;10.09;55.63;100863.56;5005411;28;20487;-69
2021/05/12 00:51:08;;;;;;;21.23;8.23;;;;;;;9.88;56.24;100859.13;5022882;28;20124;-69
2021/05/12 00:53:34;;;;;;;16.55;8.02;;;;;;;9.70;56.63;100858.91;5021961;28;20044;-69
2021/05/12 00:56:01;;;;;;;20.98;7.97;;;;;;;9.73;56.77;100855.31;5005951;28;20030;-69
2021/05/12 00:58:26;;;;;;;16.98;8.73;;;;;;;9.89;56.12;100855.63;5006039;28;20037;-69
2021/05/12 01:00:52;;;;;;;17.65;8.40;;;;;;;9.98;55.92;100852.66;4989565;28;20034;-69
2021/05/12 01:03:17;;;;;;;13.35;6.90;;;;;;;9.95;56.07;100852.81;5021757;28;20057;-69
2021/05/12 01:05:49;;;;;;;16.27;7.88;;;;;;;9.96;55.89;100862.31;5007221;28;20350;-69
2021/05/12 01:08:15;;;;;;;16.08;7.15;;;;;;;9.98;56.15;100863.13;5006583;28;20547;-69
2021/05/12 01:10:41;;;;;;;12.40;6.82;;;;;;;10.02;56.05;100865.56;5024451;28;20038;-69
2021/05/12 01:13:07;;;;;;;13.70;6.97;;;;;;;9.98;56.03;100868.34;5006856;28;20476;-69
2021/05/12 01:15:33;;;;;;;16.92;7.68;;;;;;;9.73;56.46;100879.66;5006043;28;20044;-69
2021/05/12 01:18:13;;;;;;;14.52;7.13;;;;;;;9.83;56.33;100879.34;5005939;28;20064;-69
2021/05/12 01:20:57;;;;;;;18.30;7.97;;;;;;;9.68;56.64;100883.31;5021650;28;20034;-69
2021/05/12 01:23:25;;;;;;;14.45;8.35;;;;;;;9.68;56.66;100881.59;5006729;28;20037;-69
2021/05/12 01:25:52;;;;;;;14.90;8.10;;;;;;;9.79;56.41;100884.69;5006767;28;20033;-69
2021/05/12 01:28:18;;;;;;;13.25;7.80;;;;;;;9.83;56.50;100884.56;5004568;28;20040;-69
2021/05/12 01:30:55;;;;;;;15.13;6.45;;;;;;;9.79;56.44;100879.47;5021445;28;20732;-69
2021/05/12 01:33:20;;;;;;;11.48;7.55;;;;;;;9.85;56.31;100882.75;4987711;28;20095;-69
2021/05/12 01:35:47;;;;;;;14.35;7.28;;;;;;;9.84;56.48;100886.28;5007089;28;20465;-70
2021/05/12 01:38:12;;;;;;;17.92;7.65;;;;;;;9.57;56.92;100888.94;5008489;28;20508;-70
2021/05/12 01:40:38;;;;;;;14.23;6.53;;;;;;;9.45;57.49;100897.19;5010751;28;20048;-70
2021/05/12 01:43:03;;;;;;;18.90;7.50;;;;;;;9.59;56.81;100893.19;4994408;28;20051;-70
2021/05/12 01:45:29;;;;;;;16.45;8.48;;;;;;;9.72;57.01;100891.00;5008679;28;20100;-70
2021/05/12 01:47:54;;;;;;;16.38;8.55;;;;;;;9.77;56.72;100891.69;5008586;28;20578;-70
2021/05/12 01:50:20;;;;;;;17.85;8.02;;;;;;;9.58;56.95;100881.03;5008013;28;20057;-70
2021/05/12 01:52:46;;;;;;;12.85;7.72;;;;;;;9.71;56.94;100884.06;5008451;28;20042;-70
2021/05/12 01:55:14;;;;;;;15.20;7.70;;;;;;;9.59;57.14;100889.75;5005598;28;20057;-70
2021/05/12 01:57:44;;;;;;;13.50;7.38;;;;;;;9.55;57.51;100885.53;5005778;28;20601;-70
2021/05/12 02:00:40;;;;;;;12.82;8.93;;;;;;;9.62;57.44;100879.19;5009549;28;20069;-70
2021/05/12 02:03:09;;;;;;;16.80;9.27;;;;;;;9.78;56.92;100867.28;4995367;28;20487;-69
2021/05/12 02:05:36;;;;;;;23.73;9.40;;;;;;;9.86;56.36;100872.25;5009900;28;20038;-70
2021/05/12 02:08:04;;;;;;;17.48;9.82;;;;;;;9.65;56.72;100871.25;5009774;28;20479;-70
2021/05/12 02:10:30;;;;;;;18.13;9.98;;;;;;;9.39;57.54;100875.63;5022699;28;20033;-70
2021/05/12 02:12:56;;;;;;;22.33;9.93;;;;;;;9.36;57.90;100875.72;5007882;28;20072;-70
2021/05/12 02:15:23;;;;;;;19.27;10.40;;;;;;;9.58;57.40;100874.97;5006067;28;20034;-70
2021/05/12 02:17:48;;;;;;;27.70;11.25;;;;;;;9.56;56.84;100877.63;5023208;28;20040;-70
2021/05/12 02:20:17;;;;;;;15.05;9.40;;;;;;;9.56;57.29;100872.41;5007021;28;20439;-70
2021/05/12 02:22:43;;;;;;;19.48;9.95;;;;;;;9.27;57.59;100873.44;5007189;28;20065;-70
2021/05/12 02:25:09;;;;;;;16.38;9.77;;;;;;;9.56;57.11;100871.56;4990120;28;20057;-70
2021/05/12 02:27:36;;;;;;;20.05;9.57;;;;;;;9.49;56.97;100864.88;5003440;28;20089;-69
2021/05/12 02:30:07;;;;;;;19.48;10.00;;;;;;;9.46;57.13;100872.81;5006416;28;20030;-70
2021/05/12 02:32:32;;;;;;;16.92;9.13;;;;;;;9.58;56.83;100875.81;5006348;28;20472;-70
2021/05/12 02:34:58;;;;;;;18.00;8.68;;;;;;;9.62;56.80;100875.75;5012740;28;20044;-70
2021/05/12 02:37:25;;;;;;;17.33;8.88;;;;;;;9.57;57.04;100868.06;5007816;28;20037;-70
2021/05/12 02:39:51;;;;;;;19.25;10.00;;;;;;;9.34;57.60;100867.13;5006501;28;20601;-70
2021/05/12 02:42:17;;;;;;;17.52;9.07;;;;;;;9.66;56.63;100865.13;5008784;28;20046;-70
2021/05/12 02:44:43;;;;;;;18.88;9.25;;;;;;;9.44;56.85;100872.03;5008400;28;20034;-69
2021/05/12 02:47:09;;;;;;;17.13;8.90;;;;;;;9.25;57.60;100877.84;5008648;28;20030;-70
2021/05/12 02:49:34;;;;;;;16.15;9.23;;;;;;;9.31;57.50;100872.44;5021911;28;20512;-70
2021/05/12 02:52:00;;;;;;;16.85;8.23;;;;;;;9.46;56.81;100876.28;5005528;28;20056;-70
2021/05/12 02:54:26;;;;;;;20.25;8.70;;;;;;;9.15;57.83;100874.72;5021825;28;20671;-70
2021/05/12 02:56:52;;;;;;;17.88;8.48;;;;;;;9.23;57.36;100884.91;5009990;28;20057;-69
2021/05/12 02:59:17;;;;;;;17.60;8.75;;;;;;;9.42;56.99;100879.06;5008011;28;20037;-69
2021/05/12 03:01:43;;;;;;;18.88;9.52;;;;;;;9.21;57.63;100873.69;5004702;28;20030;-70
2021/05/12 03:04:08;;;;;;;19.80;10.15;;;;;;;9.43;56.75;100875.53;5005165;28;20460;-69
2021/05/12 03:06:34;;;;;;;18.55;9.35;;;;;;;9.55;56.43;100875.94;4993346;28;20018;-70
2021/05/12 03:08:59;;;;;;;22.85;9.95;;;;;;;9.62;56.83;100879.19;5008209;28;20034;-69
2021/05/12 03:11:25;;;;;;;22.25;9.20;;;;;;;9.55;56.29;100877.72;5004811;28;20557;-70
2021/05/12 03:13:50;;;;;;;18.75;9.95;;;;;;;9.43;56.89;100886.81;5005225;28;20040;-70
2021/05/12 03:16:16;;;;;;;23.27;10.63;;;;;;;9.31;56.97;100882.88;5005225;28;20050;-70
2021/05/12 03:18:42;;;;;;;20.90;10.65;;;;;;;9.26;57.13;100884.78;4987754;28;20026;-70
2021/05/12 03:21:08;;;;;;;21.65;11.05;;;;;;;9.23;57.23;100884.03;5007112;28;20440;-70
2021/05/12 03:23:33;;;;;;;23.95;12.18;;;;;;;9.36;56.92;100885.31;5005090;28;20724;-70
2021/05/12 03:25:59;;;;;;;23.23;11.70;;;;;;;9.47;56.64;100882.34;5010712;28;20117;-70
2021/05/12 03:28:24;;;;;;;24.25;11.45;;;;;;;9.28;56.92;100883.00;5011339;28;20057;-70
2021/05/12 03:30:50;;;;;;;23.95;12.38;;;;;;;9.44;56.91;100883.31;5011058;28;20376;-70
2021/05/12 03:33:16;;;;;;;27.23;12.43;;;;;;;9.58;56.46;100880.19;5008937;28;20073;-70
2021/05/12 03:35:42;;;;;;;23.83;11.65;;;;;;;9.50;56.53;100883.09;5012413;28;20659;-75
2021/05/12 03:38:09;;;;;;;25.88;12.52;;;;;;;9.60;56.27;100879.22;5011056;28;20034;-70
2021/05/12 03:40:36;;;;;;;32.53;13.88;;;;;;;9.68;56.04;100885.94;5013446;28;20038;-70
2021/05/12 03:43:01;;;;;;;25.23;11.50;;;;;;;9.71;55.90;100881.47;5012407;28;20096;-70
2021/05/12 03:45:28;;;;;;;26.67;12.05;;;;;;;9.44;56.54;100879.84;5014562;28;20037;-70
2021/05/12 03:47:54;;;;;;;22.90;12.77;;;;;;;9.53;56.30;100882.13;5012911;28;20120;-70
2021/05/12 03:50:22;;;;;;;36.63;13.43;;;;;;;9.52;56.60;100875.19;5013325;28;20058;-70
2021/05/12 03:52:47;;;;;;;28.50;12.27;;;;;;;9.38;56.55;100880.91;5012248;28;20084;-71
2021/05/12 03:55:15;;;;;;;24.83;12.23;;;;;;;9.44;56.63;100877.25;5011009;28;20038;-70
2021/05/12 03:57:42;;;;;;;28.30;12.35;;;;;;;9.51;56.86;100878.72;5011592;28;20036;-70
2021/05/12 04:00:09;;;;;;;26.35;12.85;;;;;;;9.53;56.75;100876.91;5009797;28;20034;-69
2021/05/12 04:02:42;;;;;;;22.63;12.23;;;;;;;9.50;56.67;100877.00;5013352;28;20099;-70
2021/05/12 04:05:09;;;;;;;28.60;12.63;;;;;;;9.48;57.17;100864.03;5010257;28;20048;-70
2021/05/12 04:07:35;;;;;;;30.83;12.50;;;;;;;9.66;56.63;100875.56;5008988;28;20018;-70
2021/05/12 04:10:01;;;;;;;27.15;12.30;;;;;;;9.64;56.61;100874.78;5009025;28;20033;-70
2021/05/12 04:12:26;;;;;;;32.97;12.57;;;;;;;9.69;56.14;100870.22;5010175;28;20890;-70
2021/05/12 04:14:52;;;;;;;23.05;10.73;;;;;;;9.60;56.78;100874.00;5008053;28;20030;-70
2021/05/12 04:17:17;;;;;;;21.00;11.70;;;;;;;9.64;56.32;100879.16;5009166;28;20061;-70
2021/05/12 04:19:43;;;;;;;20.77;10.30;;;;;;;9.58;56.53;100868.00;5008190;28;20117;-70
2021/05/12 04:22:08;;;;;;;20.25;10.20;;;;;;;9.56;56.53;100863.75;5009156;28;20042;-70
2021/05/12 04:24:34;;;;;;;21.17;10.77;;;;;;;9.61;56.73;100874.88;5012327;28;20033;-70
2021/05/12 04:27:00;;;;;;;21.63;9.93;;;;;;;9.55;56.70;100870.72;5007139;28;20034;-70
2021/05/12 04:29:25;;;;;;;17.88;9.60;;;;;;;9.74;56.20;100876.13;5011540;28;20037;-70
2021/05/12 04:31:51;;;;;;;20.98;9.93;;;;;;;9.84;56.40;100876.69;5006773;28;20034;-69
2021/05/12 04:34:16;;;;;;;16.60;8.68;;;;;;;9.87;56.15;100876.56;5031814;28;20041;-70
2021/05/12 04:36:42;;;;;;;20.33;9.25;;;;;;;9.80;56.25;100883.78;5008986;28;20853;-70
2021/05/12 04:39:07;;;;;;;22.63;10.20;;;;;;;9.96;56.43;100880.59;5008003;28;20121;-70
2021/05/12 04:41:34;;;;;;;18.10;9.40;;;;;;;10.09;56.29;100881.84;5008001;28;20475;-70
2021/05/12 04:44:00;;;;;;;14.60;8.70;;;;;;;10.24;55.37;100879.56;4991112;28;20045;-70
2021/05/12 04:46:26;;;;;;;16.63;8.80;;;;;;;10.21;55.80;100881.38;5015057;28;20655;-70
2021/05/12 04:48:52;;;;;;;20.98;9.27;;;;;;;10.29;55.56;100885.47;5008973;28;20061;-70
2021/05/12 04:51:19;;;;;;;18.90;10.00;;;;;;;10.41;55.12;100890.19;5025631;28;20041;-70
2021/05/12 04:53:45;;;;;;;16.92;9.30;;;;;;;10.29;55.47;100888.06;5008567;28;20034;-70
2021/05/12 04:56:10;;;;;;;16.05;9.07;;;;;;;10.39;55.25;100881.56;5012968;28;20545;-70
2021/05/12 04:58:36;;;;;;;15.52;9.15;;;;;;;10.35;55.21;100880.00;5009312;28;20030;-69
2021/05/12 05:01:02;;;;;;;17.65;9.63;;;;;;;10.38;55.48;100872.88;5008278;28;20032;-70
2021/05/12 05:03:27;;;;;;;13.45;8.63;;;;;;;10.36;54.92;100873.84;5007723;28;20037;-70
2021/05/12 05:05:53;;;;;;;19.38;10.07;;;;;;;10.37;54.74;100878.16;5005562;28;20116;-70
2021/05/12 05:08:19;;;;;;;20.45;10.52;;;;;;;10.25;55.50;100889.09;5007696;28;20053;-71
2021/05/12 05:10:44;;;;;;;18.15;8.95;;;;;;;10.31;54.84;100896.69;5006972;28;20570;-70
2021/05/12 05:13:10;;;;;;;17.40;9.55;;;;;;;10.31;55.23;100896.69;5005925;28;20108;-70
2021/05/12 05:15:35;;;;;;;25.80;11.63;;;;;;;10.39;55.24;100895.50;5032022;28;20313;-70
2021/05/12 05:18:01;;;;;;;18.73;10.20;;;;;;;10.22;55.66;100901.34;5024550;28;20038;-70
2021/05/12 05:20:28;;;;;;;18.67;9.52;;;;;;;10.06;55.67;100908.06;5005625;28;20030;-70
2021/05/12 05:22:54;;;;;;;19.50;10.07;;;;;;;10.28;55.13;100915.09;5023733;28;20041;-70
2021/05/12 05:25:20;;;;;;;22.88;10.13;;;;;;;10.11;55.78;100916.59;5017477;28;20038;-69
2021/05/12 05:27:45;;;;;;;15.85;9.05;;;;;;;10.32;55.50;100911.44;5005267;28;20735;-70
2021/05/12 05:30:11;;;;;;;18.85;9.55;;;;;;;10.25;55.44;100912.59;5006375;28;20026;-70
2021/05/12 05:33:00;;;;;;;16.13;8.48;;;;;;;10.12;55.39;100917.44;5010698;28;20091;-69
2021/05/12 05:35:44;;;;;;;20.60;9.80;;;;;;;10.18;55.93;100920.66;5008321;28;20122;-70
2021/05/12 05:38:28;;;;;;;13.85;8.32;;;;;;;9.99;56.23;100924.84;5007108;28;20420;-70
2021/05/12 05:41:12;;;;;;;16.83;8.45;;;;;;;10.12;55.90;100930.50;5013766;28;20049;-70
2021/05/12 05:43:56;;;;;;;16.48;8.55;;;;;;;10.50;55.37;100928.19;5006897;28;20669;-69
2021/05/12 05:46:40;;;;;;;20.27;8.10;;;;;;;10.46;54.92;100927.47;5007242;28;20048;-69
2021/05/12 05:49:24;;;;;;;18.63;8.65;;;;;;;10.79;54.21;100932.25;5018640;28;20395;-70
2021/05/12 05:52:08;;;;;;;15.95;8.43;;;;;;;10.78;54.23;100933.19;5006501;28;20092;-70
2021/05/12 05:55:00;;;;;;;17.30;7.75;;;;;;;10.59;54.35;100939.16;4995533;28;20499;-70
2021/05/12 05:57:45;;;;;;;13.43;7.35;;;;;;;10.29;54.93;100945.53;5022029;28;20183;-70
2021/05/12 06:00:46;;;;;;;15.05;7.68;;;;;;;10.10;55.70;100938.41;4970695;28;20084;-69
2021/05/12 06:03:12;;;;;;;12.45;7.60;;;;;;;10.17;55.77;100939.88;4997433;28;20572;-70
2021/05/12 06:05:56;;;;;;;15.25;8.10;;;;;;;10.42;54.43;100941.56;5004265;28;20049;-70
2021/05/12 06:08:40;;;;;;;20.67;7.95;;;;;;;10.90;54.79;100939.72;5010180;28;20057;-70
2021/05/12 06:11:24;;;;;;;16.70;7.80;;;;;;;10.95;53.81;100945.59;5010408;28;20138;-69
2021/05/12 06:14:08;;;;;;;17.08;7.43;;;;;;;11.16;53.56;100938.66;5006934;28;20515;-69
2021/05/12 06:16:52;;;;;;;14.02;7.43;;;;;;;11.06;53.08;100932.94;5007998;28;20048;-70
2021/05/12 06:19:36;;;;;;;15.02;7.03;;;;;;;11.30;52.81;100935.47;5007130;28;20056;-70
2021/05/12 06:22:20;;;;;;;16.17;6.70;;;;;;;10.93;53.27;100950.91;5004598;28;20722;-70
2021/05/12 06:25:05;;;;;;;16.73;6.65;;;;;;;10.79;53.20;100951.44;5020388;28;20499;-70
2021/05/12 06:27:50;;;;;;;17.15;7.50;;;;;;;10.81;53.43;100951.34;5008923;28;20052;-70
2021/05/12 06:30:34;;;;;;;14.93;6.45;;;;;;;10.94;53.05;100952.59;5018590;28;20049;-70
2021/05/12 06:33:19;;;;;;;18.27;6.22;;;;;;;10.85;53.00;100947.75;5009047;28;20080;-69
2021/05/12 06:36:04;;;;;;;14.63;6.90;;;;;;;11.05;53.08;100941.72;5009883;28;20121;-70
2021/05/12 06:38:48;;;;;;;16.92;6.50;;;;;;;11.65;52.67;100941.81;5009174;28;20451;-69
2021/05/12 06:41:14;;;;;;;16.17;6.18;;;;;;;11.70;51.41;100950.31;5010858;28;20054;-70
2021/05/12 06:43:39;;;;;;;12.52;5.97;;;;;;;12.06;50.91;100949.63;5007936;28;20053;-70
2021/05/12 06:46:06;;;;;;;15.10;6.28;;;;;;;12.28;50.36;100949.50;5007396;28;20388;-70
2021/05/12 06:48:32;;;;;;;9.35;5.22;;;;;;;12.11;51.18;100952.91;5009573;28;20032;-69
2021/05/12 06:50:57;;;;;;;10.95;5.03;;;;;;;11.98;50.52;100967.47;5004904;28;20030;-69
2021/05/12 06:53:26;;;;;;;17.58;5.32;;;;;;;11.76;51.17;100954.44;5005625;28;20092;-70
2021/05/12 06:55:52;;;;;;;12.32;5.80;;;;;;;11.80;51.09;100961.28;5004655;28;20026;-70
2021/05/12 06:58:17;;;;;;;10.23;4.60;;;;;;;11.60;51.46;100956.88;5021575;28;20030;-70
2021/05/12 07:00:43;;;;;;;12.65;4.45;;;;;;;11.69;51.36;100959.09;5004790;28;20049;-70
2021/05/12 07:03:08;;;;;;;11.68;4.93;;;;;;;11.44;51.51;100965.38;5006992;28;20032;-70
2021/05/12 07:05:34;;;;;;;13.35;4.38;;;;;;;11.27;52.44;100957.38;5003515;28;20091;-70
2021/05/12 07:07:59;;;;;;;17.40;5.60;;;;;;;11.48;52.20;100965.22;5003649;28;20072;-70
2021/05/12 07:10:24;;;;;;;11.55;4.35;;;;;;;11.23;52.01;100971.50;5020926;28;20034;-70
2021/05/12 07:12:50;;;;;;;6.80;3.50;;;;;;;11.09;52.72;100979.91;4990317;28;20113;-70
2021/05/12 07:15:15;;;;;;;9.50;3.92;;;;;;;11.06;52.94;100974.78;5005714;28;20145;-70
2021/05/12 07:17:41;;;;;;;7.82;2.53;;;;;;;11.51;52.08;100975.56;5004276;28;20038;-70
2021/05/12 07:20:08;;;;;;;10.30;3.65;;;;;;;10.47;54.01;100973.56;5005967;28;20021;-71
2021/05/12 07:22:33;;;;;;;5.05;2.75;;;;;;;10.77;53.36;100994.22;5005942;28;20503;-70
2021/05/12 07:25:00;;;;;;;9.35;3.20;;;;;;;11.61;52.31;100980.34;5009626;28;20111;-70
2021/05/12 07:27:26;;;;;;;7.45;3.45;;;;;;;11.53;51.47;100984.19;5003461;28;20034;-71
2021/05/12 07:29:51;;;;;;;8.38;5.95;;;;;;;11.71;51.00;100982.56;4988741;28;20034;-70
2021/05/12 07:32:17;;;;;;;6.30;3.33;;;;;;;11.67;51.43;100993.19;5004939;28;20041;-70
2021/05/12 07:34:42;;;;;;;8.75;3.03;;;;;;;11.98;51.36;100996.28;5008519;28;20034;-70
2021/05/12 07:37:09;;;;;;;11.05;2.55;;;;;;;11.54;51.61;101001.63;5007856;28;20037;-70
2021/05/12 07:39:36;;;;;;;5.20;2.53;;;;;;;11.10;52.32;101009.53;5002289;28;20038;-71
2021/05/12 07:42:06;;;;;;;6.50;2.05;;;;;;;11.21;52.15;101004.72;5003496;28;20112;-70
2021/05/12 07:44:32;;;;;;;4.18;2.40;;;;;;;11.52;51.59;101012.16;5005801;28;20085;-70
2021/05/12 07:46:57;;;;;;;8.32;2.85;;;;;;;11.43;51.18;101004.69;5007680;28;20483;-70
2021/05/12 07:49:23;;;;;;;4.70;1.90;;;;;;;12.24;50.49;101000.34;5005940;28;20069;-70
2021/05/12 07:51:49;;;;;;;4.05;2.95;;;;;;;13.27;47.64;100999.03;5004448;28;20038;-70
2021/05/12 07:54:14;;;;;;;5.35;2.45;;;;;;;13.18;47.18;101012.56;5029260;28;20029;-70
2021/05/12 07:56:40;;;;;;;2.85;1.65;;;;;;;13.41;47.07;101013.25;5013859;28;20106;-70
2021/05/12 07:59:05;;;;;;;4.80;1.48;;;;;;;13.65;46.37;101008.53;5011246;28;20040;-70
2021/05/12 08:01:38;;;;;;;8.73;2.33;;;;;;;13.96;45.92;101009.59;5011107;28;20037;-71
2021/05/12 08:04:04;;;;;;;4.93;1.95;;;;;;;13.58;45.46;101009.78;5016470;28;20034;-71
2021/05/12 08:06:29;;;;;;;2.33;1.05;;;;;;;13.30;46.58;101011.13;5012110;28;20045;-71
2021/05/12 08:08:55;;;;;;;6.47;2.13;;;;;;;12.90;46.72;101013.06;5013912;28;20121;-71
2021/05/12 08:11:21;;;;;;;4.18;1.67;;;;;;;12.78;47.44;101018.88;5020186;28;20036;-71
2021/05/12 08:13:48;;;;;;;4.03;1.70;;;;;;;12.37;48.32;101019.00;5003309;28;20081;-70
2021/05/12 08:16:14;;;;;;;4.38;2.10;;;;;;;12.25;48.85;101021.25;5019245;28;20057;-70
2021/05/12 08:18:39;;;;;;;9.55;3.25;;;;;;;11.95;49.29;101027.84;5021202;28;20039;-71
2021/05/12 08:21:06;;;;;;;3.85;2.03;;;;;;;12.06;49.74;101025.59;5034429;28;20070;-71
2021/05/12 08:23:32;;;;;;;4.40;1.92;;;;;;;11.79;50.82;101023.25;5021141;28;20113;-69
2021/05/12 08:25:58;;;;;;;9.80;3.08;;;;;;;11.80;50.65;101026.75;5019329;28;20033;-70
2021/05/12 08:28:24;;;;;;;4.68;2.05;;;;;;;12.22;50.09;101025.75;5029712;28;20131;-70
2021/05/12 08:30:50;;;;;;;5.25;2.63;;;;;;;12.15;49.86;101030.44;5019284;28;20046;-71
2021/05/12 08:33:16;;;;;;;3.38;2.03;;;;;;;12.34;49.42;101024.38;5019721;28;20644;-70
2021/05/12 08:35:45;;;;;;;3.70;1.98;;;;;;;12.59;49.11;101024.09;5016486;28;20089;-70
2021/05/12 08:38:18;;;;;;;3.17;1.13;;;;;;;12.21;49.29;101040.66;5020661;28;20041;-70
2021/05/12 08:40:47;;;;;;;3.75;1.15;;;;;;;12.45;48.53;101027.38;5036720;28;20026;-72
2021/05/12 08:43:14;;;;;;;6.72;1.40;;;;;;;12.54;48.22;101026.09;5015048;28;20079;-69
2021/05/12 08:45:44;;;;;;;3.58;0.80;;;;;;;12.76;48.39;101036.47;5022384;28;20048;-71
2021/05/12 08:48:14;;;;;;;2.22;1.42;;;;;;;12.91;48.04;101041.00;5000610;28;20510;-70
2021/05/12 08:50:41;;;;;;;3.22;1.50;;;;;;;12.89;46.96;101033.22;5033861;28;20084;-70
2021/05/12 08:53:07;;;;;;;4.43;1.65;;;;;;;12.79;48.06;101031.94;5005525;28;20032;-70
2021/05/12 08:55:33;;;;;;;2.55;1.33;;;;;;;13.03;47.46;101034.34;5012932;28;20391;-70
2021/05/12 08:57:59;;;;;;;3.03;1.25;;;;;;;12.83;47.53;101037.91;5027207;28;20041;-71
2021/05/12 09:00:26;;;;;;;3.03;1.90;;;;;;;13.54;46.40;101043.22;5012622;28;20026;-70
2021/05/12 09:02:52;;;;;;;1.88;1.02;;;;;;;14.24;44.53;101040.53;5012776;28;20076;-70
2021/05/12 09:05:19;;;;;;;2.17;1.38;;;;;;;13.81;44.85;101048.88;5019195;28;20411;-70
2021/05/12 09:07:46;;;;;;;2.38;1.50;;;;;;;13.75;44.53;101041.31;5021179;28;20041;-70
2021/05/12 09:10:11;;;;;;;8.05;2.25;;;;;;;13.52;45.01;101042.44;5021736;28;20038;-70
2021/05/12 09:12:46;;;;;;;2.67;1.38;;;;;;;13.05;45.79;101040.34;5018226;28;20037;-71
2021/05/12 09:15:17;;;;;;;5.45;1.63;;;;;;;13.00;46.35;101043.16;5017283;28;20045;-72
2021/05/12 09:17:44;;;;;;;2.95;1.30;;;;;;;13.44;45.85;101042.78;5035078;28;20030;-70
2021/05/12 09:20:30;;;;;;;2.83;2.00;;;;;;;12.88;46.30;101041.16;5027205;28;20441;-70
2021/05/12 09:23:02;;;;;;;3.80;2.35;;;;;;;13.04;46.84;101042.09;5003728;28;20106;-69
2021/05/12 09:25:29;;;;;;;6.00;3.08;;;;;;;13.46;45.96;101048.81;5011198;28;20064;-72
2021/05/12 09:28:15;;;;;;;4.97;2.88;;;;;;;14.10;44.83;101043.91;5013740;28;20099;-70
2021/05/12 09:30:42;;;;;;;6.13;2.92;;;;;;;14.30;44.29;101045.44;5012855;28;20065;-71
2021/05/12 09:33:09;;;;;;;6.75;2.38;;;;;;;13.50;44.84;101050.38;5028717;28;20038;-70
2021/05/12 09:35:42;;;;;;;3.42;2.28;;;;;;;13.70;46.15;101056.44;5014554;28;20435;-70
2021/05/12 09:38:22;;;;;;;2.38;1.70;;;;;;;14.41;43.50;101058.06;5016198;28;20164;-72
2021/05/12 09:41:06;;;;;;;7.13;2.83;;;;;;;15.29;42.71;101051.50;5013707;28;20109;-71
2021/05/12 09:43:34;;;;;;;5.63;2.97;;;;;;;16.50;40.31;101049.56;4996776;28;20041;-70
2021/05/12 09:46:24;;;;;;;3.83;2.80;;;;;;;16.72;38.49;101041.16;5013486;28;20032;-71
2021/05/12 09:48:59;;;;;;;5.40;2.10;;;;;;;17.39;37.66;101046.50;5018724;28;20048;-71
2021/05/12 09:51:25;;;;;;;3.10;1.30;;;;;;;17.95;35.79;101043.66;5013634;28;20040;-71
2021/05/12 09:54:06;;;;;;;4.78;1.73;;;;;;;17.92;35.08;101043.03;5009042;28;20097;-71
2021/05/12 09:56:42;;;;;;;2.70;1.38;;;;;;;16.82;36.27;101039.66;5011818;28;20595;-71
2021/05/12 09:59:20;;;;;;;1.92;1.23;;;;;;;17.62;35.29;101036.22;5014365;28;20111;-72
2021/05/12 10:01:53;;;;;;;1.63;1.17;;;;;;;18.23;33.83;101033.88;5013374;28;20052;-71
2021/05/12 10:04:33;;;;;;;2.90;0.95;;;;;;;17.88;34.65;101034.47;5024643;28;20026;-71
2021/05/12 10:07:00;;;;;;;5.68;1.45;;;;;;;17.45;35.21;101038.19;5006112;28;20080;-71
2021/05/12 10:09:30;;;;;;;6.07;1.23;;;;;;;18.01;34.59;101037.13;5008596;28;20087;-73
2021/05/12 10:12:03;;;;;;;2.35;0.80;;;;;;;17.82;33.85;101041.00;5005681;28;20052;-71
2021/05/12 10:14:28;;;;;;;3.03;0.80;;;;;;;17.19;34.37;101034.63;5007661;28;20061;-71
2021/05/12 10:16:55;;;;;;;3.97;0.70;;;;;;;16.49;35.05;101047.00;5006346;28;20158;-71
2021/05/12 10:19:21;;;;;;;6.70;1.08;;;;;;;15.92;35.13;101043.38;5006577;28;20055;-71
2021/05/12 10:21:47;;;;;;;5.82;0.63;;;;;;;16.06;35.33;101045.22;5011285;28;20029;-71
2021/05/12 10:24:13;;;;;;;4.40;0.70;;;;;;;16.61;34.53;101043.63;5006725;28;20033;-71
2021/05/12 10:26:43;;;;;;;4.32;0.77;;;;;;;16.36;34.96;101039.03;5008110;28;20484;-71
2021/05/12 10:29:11;;;;;;;2.05;0.40;;;;;;;17.09;33.21;101049.38;5007276;28;20029;-71
2021/05/12 10:31:37;;;;;;;7.68;0.40;;;;;;;16.98;33.62;101051.88;5008483;28;20033;-71
2021/05/12 10:34:03;;;;;;;4.18;0.32;;;;;;;17.82;32.83;101048.94;5006281;28;20130;-71
2021/05/12 10:36:28;;;;;;;3.55;0.85;;;;;;;18.15;32.44;101049.38;5007327;28;20029;-70
2021/05/12 10:38:56;;;;;;;6.60;0.60;;;;;;;17.92;31.42;101051.81;5006992;28;20057;-71
2021/05/12 10:41:37;;;;;;;4.70;0.40;;;;;;;18.68;31.35;101050.06;5008399;28;20408;-70
2021/05/12 10:44:23;;;;;;;3.40;0.40;;;;;;;19.32;31.39;101044.53;5020981;28;20566;-71
2021/05/12 10:47:09;;;;;;;10.68;0.50;;;;;;;18.93;30.03;101054.47;5005736;28;20026;-71
2021/05/12 10:49:36;;;;;;;1.75;0.40;;;;;;;17.80;30.88;101050.00;5005002;28;20037;-71
2021/05/12 10:52:09;;;;;;;1.55;0.50;;;;;;;18.14;31.02;101045.03;5010250;28;20088;-70
2021/05/12 10:54:43;;;;;;;0.50;0.22;;;;;;;17.78;31.22;101047.47;5008605;28;20097;-71
2021/05/12 10:57:10;;;;;;;4.70;1.27;;;;;;;18.74;31.92;101046.97;5007126;28;20494;-71
2021/05/12 10:59:51;;;;;;;5.50;0.50;;;;;;;18.57;30.63;101055.28;5009624;28;20046;-70
2021/05/12 11:02:17;;;;;;;2.90;0.45;;;;;;;18.76;30.38;101045.06;5004369;28;20377;-70
2021/05/12 11:04:59;;;;;;;2.80;0.30;;;;;;;17.53;31.07;101047.41;5004291;28;20026;-70
2021/05/12 11:07:24;;;;;;;2.25;0.30;;;;;;;16.92;32.08;101041.69;5021040;28;20045;-70
2021/05/12 11:09:50;;;;;;;2.58;0.82;;;;;;;17.13;32.62;101042.94;5005149;28;20026;-70
2021/05/12 11:12:19;;;;;;;2.15;0.50;;;;;;;16.30;33.04;101042.88;5006176;28;20033;-71
2021/05/12 11:14:56;;;;;;;5.90;0.43;;;;;;;16.04;33.18;101043.63;5005643;28;20079;-70
2021/05/12 11:17:22;;;;;;;3.22;0.30;;;;;;;18.02;33.74;101044.94;5006480;28;20056;-70
2021/05/12 11:19:58;;;;;;;4.88;0.50;;;;;;;18.10;31.37;101041.78;5009368;28;20072;-70
2021/05/12 11:22:45;;;;;;;2.67;0.73;;;;;;;17.11;32.52;101039.53;5005598;28;20506;-70
2021/05/12 11:33:34;;;;;;;3.47;0.50;;;;;;;19.18;28.81;101053.50;5002837;28;20376;-70
2021/05/12 11:36:08;;;;;;;2.75;0.63;;;;;;;19.27;29.08;101039.56;5006792;28;20135;-70
2021/05/12 11:38:35;;;;;;;1.52;0.10;;;;;;;18.69;28.59;101042.00;5008212;28;20091;-70
2021/05/12 11:41:17;;;;;;;1.02;0.20;;;;;;;17.77;31.30;101052.84;5022753;28;20034;-70
2021/05/12 11:43:42;;;;;;;0.73;0.20;;;;;;;17.41;31.00;101054.34;5002494;28;20030;-70